Spangle, Washington
Current Conditions -  °F | °C
As of 9:53 PM on Sunday 25 Jan 2015 (Local Time) from KGEG Reporting Station
Moderate Fog Moderate Fog  
Wind Chill: 34°   Ceiling: 100
Heat Index: 39°   Visibility: 0.12mi
Dew Point: 39°   Wind: 7mph
Humidity: 100%   Direction: 60°ENE
Pressure: 30.17"   Gusts: NA
Location:  47.43°N, 117.38°W
Report Text: KGEG 260553Z 06006KT 1/8SM R03/1000FT FG VV001 04/04 A3017 RMK AO2 SLP227 T00390039 10089 20039 56006
Loading
Personal Weather Stations






























Interactive Weather Map New forecast layout! Learn more

10-Day Weather Forecast

Advertisements
Track Severe Weather on mobile